createdAt,value
2019-02-28T00:00:06.686Z,8.50
2019-02-28T00:05:14.399Z,8.44
2019-02-28T00:10:19.818Z,8.46
2019-02-28T00:15:25.386Z,8.44
2019-02-28T00:20:31.967Z,8.43
2019-02-28T00:25:38.584Z,8.38
2019-02-28T00:30:43.828Z,8.33
2019-02-28T00:35:49.181Z,8.29
2019-02-28T00:40:55.665Z,8.29
2019-02-28T00:46:01.421Z,8.26
2019-02-28T00:51:06.683Z,8.31
2019-02-28T00:56:11.932Z,8.28
2019-02-28T01:01:17.805Z,8.29
2019-02-28T01:06:23.179Z,8.32
2019-02-28T01:11:28.427Z,8.29
2019-02-28T01:16:34.088Z,8.26
2019-02-28T01:21:39.491Z,8.20
2019-02-28T01:26:46.773Z,8.24
2019-02-28T01:31:51.810Z,8.23
2019-02-28T01:36:57.053Z,8.19
2019-02-28T01:42:02.573Z,8.18
2019-02-28T01:47:07.874Z,8.17
2019-02-28T01:52:13.488Z,8.11
2019-02-28T01:57:18.904Z,8.11
2019-02-28T02:02:24.281Z,7.96
2019-02-28T02:07:33.336Z,7.95
2019-02-28T02:12:38.658Z,7.91
2019-02-28T02:17:44.026Z,7.85
2019-02-28T02:22:49.282Z,7.78
2019-02-28T02:27:54.501Z,7.74
2019-02-28T02:32:59.858Z,7.67
2019-02-28T02:38:05.374Z,7.55
2019-02-28T02:43:10.521Z,7.52
2019-02-28T02:48:15.766Z,7.48
2019-02-28T02:53:20.928Z,7.42
2019-02-28T02:58:27.990Z,7.34
2019-02-28T03:03:32.967Z,7.38
2019-02-28T03:08:38.022Z,7.25
2019-02-28T03:13:44.190Z,7.24
2019-02-28T03:18:56.945Z,7.18
2019-02-28T03:23:56.451Z,7.14
2019-02-28T03:29:07.558Z,7.14
2019-02-28T03:34:13.422Z,7.16
2019-02-28T03:39:17.198Z,7.16
2019-02-28T03:44:22.599Z,7.09
2019-02-28T03:49:27.795Z,7.10
2019-02-28T03:54:33.498Z,7.09
2019-02-28T03:59:38.779Z,7.15
2019-02-28T04:04:49.092Z,7.13
2019-02-28T04:09:51.226Z,7.14
2019-02-28T04:14:56.618Z,7.12
2019-02-28T04:20:01.917Z,7.12
2019-02-28T04:25:10.286Z,7.10
2019-02-28T04:30:16.257Z,7.09
2019-02-28T04:35:25.265Z,7.06
2019-02-28T04:40:29.125Z,7.02
2019-02-28T04:45:34.584Z,7.00
2019-02-28T04:50:39.743Z,6.92
2019-02-28T04:55:45.201Z,6.86
2019-02-28T05:00:50.314Z,6.79
2019-02-28T05:05:55.715Z,6.79
2019-02-28T05:11:01.025Z,6.73
2019-02-28T05:16:09.382Z,6.72
2019-02-28T05:21:16.590Z,6.63
2019-02-28T05:26:23.420Z,6.58
2019-02-28T05:31:28.057Z,6.51
2019-02-28T05:36:34.636Z,6.49
2019-02-28T05:41:40.381Z,6.47
2019-02-28T05:46:45.536Z,6.42
2019-02-28T05:51:50.978Z,6.42
2019-02-28T05:56:56.460Z,6.34
2019-02-28T06:02:01.973Z,6.32
2019-02-28T06:07:09.333Z,6.37
2019-02-28T06:12:14.402Z,6.32
2019-02-28T06:17:20.910Z,6.29
2019-02-28T06:22:26.301Z,6.27
2019-02-28T06:27:40.868Z,6.25
2019-02-28T06:32:38.689Z,6.22
2019-02-28T06:37:44.145Z,6.24
2019-02-28T06:42:49.401Z,6.20
2019-02-28T06:47:54.858Z,6.18
2019-02-28T06:53:00.319Z,6.24
2019-02-28T06:58:05.787Z,6.26
2019-02-28T07:03:11.183Z,6.45
2019-02-28T07:08:16.510Z,6.54
2019-02-28T07:13:21.754Z,6.59
2019-02-28T07:18:26.906Z,6.68
2019-02-28T07:23:32.473Z,6.61
2019-02-28T07:28:37.855Z,6.65
2019-02-28T07:33:44.586Z,6.79
2019-02-28T07:38:50.561Z,6.81
2019-02-28T07:43:55.686Z,6.84
2019-02-28T07:49:01.606Z,6.91
2019-02-28T07:54:06.991Z,7.17
2019-02-28T07:59:12.246Z,7.21
2019-02-28T08:04:18.514Z,7.33
2019-02-28T08:09:27.262Z,7.56
2019-02-28T08:14:32.624Z,7.72
2019-02-28T08:19:37.973Z,7.52
2019-02-28T08:24:43.314Z,7.57
2019-02-28T08:29:48.494Z,7.70
2019-02-28T08:34:55.493Z,7.97
2019-02-28T08:40:02.011Z,8.07
2019-02-28T08:45:13.112Z,8.10
2019-02-28T08:50:24.053Z,8.23
2019-02-28T08:55:29.573Z,7.98
2019-02-28T09:00:35.297Z,8.02
2019-02-28T09:05:40.549Z,7.90
2019-02-28T09:10:46.972Z,8.02
2019-02-28T09:15:53.103Z,8.16
2019-02-28T09:20:58.461Z,8.01
2019-02-28T09:26:03.783Z,8.20
2019-02-28T09:31:09.180Z,8.14
2019-02-28T09:36:20.220Z,8.28
2019-02-28T09:41:21.834Z,8.28
2019-02-28T09:46:27.089Z,8.43
2019-02-28T09:51:32.851Z,8.52
2019-02-28T09:56:41.217Z,8.65
2019-02-28T10:01:45.527Z,8.58
2019-02-28T10:06:51.612Z,8.63
2019-02-28T10:11:57.680Z,8.70
2019-02-28T10:17:03.048Z,8.78
2019-02-28T10:22:10.114Z,9.01
2019-02-28T10:27:15.902Z,8.95
2019-02-28T10:32:21.280Z,9.22
2019-02-28T10:37:26.848Z,9.31
2019-02-28T10:42:32.282Z,9.52
2019-02-28T10:47:37.545Z,9.39
2019-02-28T10:52:43.007Z,9.73
2019-02-28T10:57:49.370Z,9.86
2019-02-28T11:02:57.477Z,10.02
2019-02-28T11:08:02.928Z,10.02
2019-02-28T11:13:11.401Z,10.03
2019-02-28T11:18:16.963Z,10.06
2019-02-28T11:23:23.462Z,9.89
2019-02-28T11:28:29.313Z,9.92
2019-02-28T11:33:36.472Z,9.76
2019-02-28T11:38:42.056Z,9.76
2019-02-28T11:43:47.739Z,9.95
2019-02-28T11:48:54.130Z,10.13
2019-02-28T11:54:00.549Z,10.10
2019-02-28T11:59:06.219Z,10.19
2019-02-28T12:04:11.752Z,10.22
2019-02-28T12:09:19.231Z,10.11
2019-02-28T12:14:26.461Z,10.16
2019-02-28T12:19:32.032Z,10.28
2019-02-28T12:24:38.518Z,10.15
2019-02-28T12:29:45.566Z,10.24
2019-02-28T12:34:50.817Z,10.33
2019-02-28T12:39:56.143Z,10.07
2019-02-28T12:45:01.510Z,10.30
2019-02-28T12:50:09.815Z,9.96
2019-02-28T12:55:18.543Z,9.65
2019-02-28T13:00:35.074Z,9.87
2019-02-28T13:05:40.729Z,9.88
2019-02-28T13:10:47.317Z,10.05
2019-02-28T13:15:52.725Z,9.93
2019-02-28T13:20:58.029Z,9.81
2019-02-28T13:26:03.399Z,9.81
2019-02-28T13:31:08.963Z,9.82
2019-02-28T13:36:14.112Z,9.97
2019-02-28T13:41:22.129Z,9.35
2019-02-28T13:46:32.342Z,9.47
2019-02-28T13:51:40.479Z,9.47
2019-02-28T13:56:40.985Z,9.26
2019-02-28T14:01:46.329Z,9.34
2019-02-28T14:06:52.531Z,9.34
2019-02-28T14:11:59.033Z,9.49
2019-02-28T14:17:04.556Z,9.50
2019-02-28T14:22:11.565Z,10.05
2019-02-28T14:27:17.927Z,11.77
2019-02-28T14:32:23.215Z,12.68
2019-02-28T14:37:28.548Z,12.39
2019-02-28T14:42:33.908Z,12.12
2019-02-28T14:47:39.166Z,12.18
2019-02-28T14:52:45.848Z,11.64
2019-02-28T14:57:51.417Z,12.25
2019-02-28T15:02:59.483Z,12.74
2019-02-28T15:08:04.393Z,11.72
2019-02-28T15:13:10.063Z,11.69
2019-02-28T15:18:15.456Z,11.08
2019-02-28T15:23:20.581Z,11.41
2019-02-28T15:28:25.875Z,9.52
2019-02-28T15:33:31.259Z,8.69
2019-02-28T15:38:36.642Z,8.52
2019-02-28T15:43:41.766Z,8.47
2019-02-28T15:48:46.991Z,8.25
2019-02-28T15:53:52.134Z,8.05
2019-02-28T15:58:57.629Z,8.00
2019-02-28T16:04:03.247Z,7.85
2019-02-28T16:09:11.558Z,7.69
2019-02-28T16:14:17.235Z,7.61
2019-02-28T16:19:22.832Z,7.57
2019-02-28T16:24:28.358Z,7.38
2019-02-28T16:29:33.564Z,7.34
2019-02-28T16:34:42.324Z,7.25
2019-02-28T16:39:49.158Z,7.10
2019-02-28T16:44:52.979Z,7.01
2019-02-28T16:49:58.228Z,6.96
2019-02-28T16:55:03.905Z,6.77
2019-02-28T17:00:15.986Z,6.74
2019-02-28T17:05:26.743Z,6.62
2019-02-28T17:10:33.384Z,6.46
2019-02-28T17:15:40.235Z,6.44
2019-02-28T17:20:49.118Z,6.26
2019-02-28T17:25:56.527Z,6.18
2019-02-28T17:31:20.930Z,6.08
2019-02-28T17:36:27.979Z,6.05
2019-02-28T17:41:33.935Z,5.94
2019-02-28T17:46:40.343Z,5.84
2019-02-28T17:51:48.793Z,5.74
2019-02-28T17:57:12.202Z,5.62
2019-02-28T18:02:47.765Z,5.52
2019-02-28T18:08:05.201Z,5.46
2019-02-28T18:13:16.224Z,5.39
2019-02-28T18:18:35.686Z,5.34
2019-02-28T18:24:04.285Z,5.30
2019-02-28T18:29:33.073Z,5.25
2019-02-28T18:34:38.477Z,5.23
2019-02-28T18:39:44.669Z,5.16
2019-02-28T18:44:50.963Z,5.12
2019-02-28T18:49:56.477Z,5.13
2019-02-28T18:55:06.032Z,5.07
2019-02-28T19:00:13.344Z,5.13
2019-02-28T19:05:18.804Z,5.18
2019-02-28T19:10:24.523Z,5.13
2019-02-28T19:15:31.278Z,5.10
2019-02-28T19:20:36.717Z,5.16
2019-02-28T19:25:42.564Z,5.21
2019-02-28T19:30:48.097Z,5.28
2019-02-28T19:35:54.641Z,5.11
2019-02-28T19:41:00.010Z,5.13
2019-02-28T19:46:05.655Z,5.03
2019-02-28T19:51:10.879Z,5.10
2019-02-28T19:56:16.380Z,5.01
2019-02-28T20:01:21.941Z,4.83
2019-02-28T20:06:27.301Z,4.81
2019-02-28T20:11:32.998Z,4.87
2019-02-28T20:16:38.423Z,4.79
2019-02-28T20:21:44.273Z,4.66
2019-02-28T20:26:50.570Z,4.54
2019-02-28T20:31:56.033Z,4.61
2019-02-28T20:37:01.401Z,4.68
2019-02-28T20:42:07.963Z,4.72
2019-02-28T20:47:13.518Z,4.67
2019-02-28T20:52:18.768Z,4.62
2019-02-28T20:57:24.069Z,4.53
2019-02-28T21:02:29.495Z,4.60
2019-02-28T21:07:35.391Z,4.67
2019-02-28T21:12:40.964Z,4.66
2019-02-28T21:17:46.231Z,4.67
2019-02-28T21:22:51.665Z,4.70
2019-02-28T21:27:57.247Z,4.71
2019-02-28T21:33:02.982Z,4.86
2019-02-28T21:38:08.340Z,5.05
2019-02-28T21:43:13.711Z,5.06
2019-02-28T21:48:19.190Z,5.03
2019-02-28T21:53:24.422Z,4.97
2019-02-28T21:58:31.219Z,5.12
2019-02-28T22:03:36.791Z,5.00
2019-02-28T22:08:42.154Z,4.95
2019-02-28T22:13:47.619Z,4.84
2019-02-28T22:18:52.849Z,4.82
2019-02-28T22:23:58.132Z,4.69
2019-02-28T22:29:03.454Z,4.48
2019-02-28T22:34:13.364Z,4.45
2019-02-28T22:39:18.697Z,4.34
2019-02-28T22:44:24.072Z,4.17
2019-02-28T22:49:29.739Z,4.13
2019-02-28T22:54:34.996Z,4.12
2019-02-28T22:59:40.361Z,4.02
2019-02-28T23:04:46.059Z,3.97
2019-02-28T23:09:51.496Z,3.98
2019-02-28T23:14:56.763Z,3.93
2019-02-28T23:20:02.203Z,3.79
2019-02-28T23:25:08.775Z,3.72
2019-02-28T23:30:29.991Z,3.56
2019-02-28T23:35:35.858Z,3.50
2019-02-28T23:40:41.444Z,3.47
2019-02-28T23:45:47.008Z,3.42
2019-02-28T23:50:52.490Z,3.36
2019-02-28T23:55:58.236Z,3.33
